createdAt,value
2019-01-24T00:01:00.679Z,37.57
2019-01-24T00:03:30.717Z,46.13
2019-01-24T00:06:00.774Z,39.43
2019-01-24T00:08:30.760Z,41.47
2019-01-24T00:11:00.822Z,39.33
2019-01-24T00:13:30.920Z,41.23
2019-01-24T00:16:01.067Z,36.67
2019-01-24T00:18:31.241Z,39.40
2019-01-24T00:21:01.348Z,43.63
2019-01-24T00:23:31.422Z,40.17
2019-01-24T00:26:01.481Z,37.93
2019-01-24T00:28:31.561Z,48.40
2019-01-24T00:31:01.677Z,40.80
2019-01-24T00:33:31.776Z,39.27
2019-01-24T00:36:01.875Z,40.77
2019-01-24T00:38:31.995Z,42.47
2019-01-24T00:41:02.042Z,38.50
2019-01-24T00:43:33.025Z,42.50
2019-01-24T00:46:03.181Z,48.57
2019-01-24T00:48:33.318Z,43.70
2019-01-24T00:51:04.197Z,47.23
2019-01-24T00:53:34.294Z,45.83
2019-01-24T00:56:04.459Z,42.40
2019-01-24T00:58:34.466Z,42.17
2019-01-24T01:01:04.833Z,41.45
2019-01-24T01:03:34.913Z,38.73
2019-01-24T01:06:05.072Z,43.73
2019-01-24T01:08:35.217Z,50.87
2019-01-24T01:11:05.370Z,47.10
2019-01-24T01:13:35.863Z,56.07
2019-01-24T01:16:05.954Z,43.67
2019-01-24T01:18:37.048Z,49.83
2019-01-24T01:21:07.236Z,44.13
2019-01-24T01:23:37.209Z,46.27
2019-01-24T01:26:07.409Z,42.40
2019-01-24T01:28:37.488Z,43.23
2019-01-24T01:31:07.483Z,57.40
2019-01-24T01:33:37.663Z,41.73
2019-01-24T01:36:07.739Z,47.47
2019-01-24T01:38:37.833Z,45.47
2019-01-24T01:41:08.958Z,52.17
2019-01-24T01:43:39.798Z,40.23
2019-01-24T01:46:10.004Z,46.37
2019-01-24T01:48:39.985Z,43.57
2019-01-24T01:51:10.037Z,46.40
2019-01-24T01:53:40.114Z,46.97
2019-01-24T01:56:10.162Z,47.80
2019-01-24T01:58:40.214Z,48.10
2019-01-24T02:01:10.369Z,44.57
2019-01-24T02:03:40.565Z,50.23
2019-01-24T02:06:10.668Z,43.98
2019-01-24T02:08:40.676Z,48.30
2019-01-24T02:11:10.733Z,47.37
2019-01-24T02:13:40.775Z,45.17
2019-01-24T02:16:10.827Z,46.00
2019-01-24T02:18:40.985Z,47.57
2019-01-24T02:21:11.069Z,48.67
2019-01-24T02:23:42.141Z,46.10
2019-01-24T02:26:13.081Z,41.70
2019-01-24T02:28:43.101Z,51.07
2019-01-24T02:31:13.157Z,65.23
2019-01-24T02:33:44.185Z,57.43
2019-01-24T02:36:14.332Z,57.50
2019-01-24T02:38:44.510Z,45.50
2019-01-24T02:41:15.329Z,51.13
2019-01-24T02:43:45.408Z,53.77
2019-01-24T02:46:15.402Z,46.90
2019-01-24T02:48:45.451Z,49.23
2019-01-24T02:51:15.577Z,50.70
2019-01-24T02:53:45.700Z,48.70
2019-01-24T02:56:15.695Z,53.43
2019-01-24T02:58:45.694Z,43.53
2019-01-24T03:01:15.879Z,50.93
2019-01-24T03:03:45.858Z,54.27
2019-01-24T03:06:15.941Z,45.52
2019-01-24T03:08:46.062Z,52.47
2019-01-24T03:11:16.064Z,60.03
2019-01-24T03:13:46.139Z,50.40
2019-01-24T03:16:16.234Z,50.87
2019-01-24T03:18:46.322Z,50.57
2019-01-24T03:21:16.377Z,56.30
2019-01-24T03:23:46.654Z,48.30
2019-01-24T03:26:16.642Z,47.10
2019-01-24T03:28:46.686Z,55.00
2019-01-24T03:31:16.789Z,58.97
2019-01-24T03:33:46.977Z,60.00
2019-01-24T03:36:18.002Z,60.10
2019-01-24T03:38:48.052Z,51.50
2019-01-24T03:41:18.127Z,53.77
2019-01-24T03:43:48.350Z,51.43
2019-01-24T03:46:18.328Z,55.33
2019-01-24T03:48:48.327Z,49.30
2019-01-24T03:51:18.339Z,59.27
2019-01-24T03:53:49.123Z,49.97
2019-01-24T03:56:19.189Z,52.77
2019-01-24T03:58:49.275Z,59.20
2019-01-24T04:01:19.363Z,58.67
2019-01-24T04:03:49.517Z,60.60
2019-01-24T04:06:19.585Z,63.13
2019-01-24T04:08:49.679Z,55.67
2019-01-24T04:11:19.798Z,55.33
2019-01-24T04:13:49.870Z,58.23
2019-01-24T04:16:19.936Z,59.80
2019-01-24T04:18:50.984Z,57.27
2019-01-24T04:21:21.093Z,60.27
2019-01-24T04:23:51.108Z,57.93
2019-01-24T04:26:21.174Z,50.52
2019-01-24T04:28:51.223Z,58.07
2019-01-24T04:31:21.263Z,55.17
2019-01-24T04:33:51.416Z,68.57
2019-01-24T04:36:22.382Z,59.63
2019-01-24T04:38:52.487Z,54.80
2019-01-24T04:41:22.514Z,59.10
2019-01-24T04:43:52.886Z,67.00
2019-01-24T04:46:22.949Z,69.77
2019-01-24T04:48:53.042Z,53.30
2019-01-24T04:51:23.115Z,67.10
2019-01-24T04:53:53.190Z,53.70
2019-01-24T04:56:23.286Z,55.00
2019-01-24T04:58:53.526Z,62.03
2019-01-24T05:01:23.641Z,71.17
2019-01-24T05:03:53.641Z,63.27
2019-01-24T05:06:23.637Z,56.20
2019-01-24T05:08:53.699Z,55.23
2019-01-24T05:11:23.669Z,60.70
2019-01-24T05:13:54.868Z,57.57
2019-01-24T05:16:25.079Z,58.00
2019-01-24T05:18:55.055Z,55.67
2019-01-24T05:21:25.313Z,51.43
2019-01-24T05:23:55.365Z,62.13
2019-01-24T05:26:25.505Z,62.27
2019-01-24T05:28:55.625Z,63.07
2019-01-24T05:31:25.656Z,66.13
2019-01-24T05:33:55.657Z,50.83
2019-01-24T05:36:25.736Z,58.00
2019-01-24T05:38:55.812Z,62.70
2019-01-24T05:41:25.965Z,57.20
2019-01-24T05:43:56.037Z,56.83
2019-01-24T05:46:29.098Z,54.63
2019-01-24T05:48:59.785Z,56.10
2019-01-24T05:51:30.995Z,56.00
2019-01-24T05:54:04.616Z,57.98
2019-01-24T05:56:39.975Z,61.00
2019-01-24T05:59:06.922Z,63.97
2019-01-24T06:01:39.144Z,56.00
2019-01-24T06:04:10.761Z,63.90
2019-01-24T06:06:40.840Z,55.13
2019-01-24T06:09:15.130Z,58.80
2019-01-24T06:11:46.883Z,56.57
2019-01-24T06:14:19.631Z,54.60
2019-01-24T06:16:50.898Z,50.70
2019-01-24T06:19:21.832Z,61.97
2019-01-24T06:21:52.744Z,58.60
2019-01-24T06:24:26.963Z,53.43
2019-01-24T06:26:56.827Z,53.90
2019-01-24T06:29:26.999Z,53.80
2019-01-24T06:31:57.030Z,58.77
2019-01-24T06:34:27.129Z,59.63
2019-01-24T06:36:57.109Z,57.67
2019-01-24T06:39:28.698Z,66.33
2019-01-24T06:41:58.726Z,55.53
2019-01-24T06:44:28.791Z,49.53
2019-01-24T06:46:58.957Z,53.37
2019-01-24T06:49:29.039Z,51.13
2019-01-24T06:51:59.202Z,59.47
2019-01-24T06:54:29.405Z,58.90
2019-01-24T06:56:59.453Z,61.80
2019-01-24T06:59:29.506Z,54.23
2019-01-24T07:01:59.517Z,53.93
2019-01-24T07:04:29.594Z,55.43
2019-01-24T07:06:59.806Z,61.70
2019-01-24T07:09:29.786Z,57.87
2019-01-24T07:11:59.879Z,56.10
2019-01-24T07:14:29.946Z,53.47
2019-01-24T07:16:59.985Z,51.20
2019-01-24T07:19:30.072Z,58.63
2019-01-24T07:22:00.143Z,62.20
2019-01-24T07:24:30.285Z,52.63
2019-01-24T07:27:00.417Z,54.17
2019-01-24T07:29:30.742Z,57.93
2019-01-24T07:32:00.832Z,49.60
2019-01-24T07:34:30.804Z,54.47
2019-01-24T07:37:00.869Z,51.43
2019-01-24T07:39:30.917Z,52.47
2019-01-24T07:42:00.988Z,61.50
2019-01-24T07:44:31.073Z,53.30
2019-01-24T07:47:01.124Z,50.60
2019-01-24T07:49:31.217Z,58.33
2019-01-24T07:52:01.490Z,56.13
2019-01-24T07:54:31.529Z,50.50
2019-01-24T07:57:01.640Z,52.50
2019-01-24T07:59:31.749Z,56.37
2019-01-24T08:02:01.875Z,50.90
2019-01-24T08:04:32.391Z,58.07
2019-01-24T08:07:02.504Z,54.47
2019-01-24T08:09:32.721Z,51.80
2019-01-24T08:12:02.824Z,51.53
2019-01-24T08:14:32.839Z,63.73
2019-01-24T08:17:02.814Z,48.83
2019-01-24T08:19:32.897Z,53.20
2019-01-24T08:22:03.888Z,49.90
2019-01-24T08:24:33.952Z,55.33
2019-01-24T08:27:04.599Z,60.28
2019-01-24T08:29:34.612Z,56.27
2019-01-24T08:32:04.856Z,53.65
2019-01-24T08:34:34.934Z,54.87
2019-01-24T08:37:05.670Z,54.90
2019-01-24T08:39:35.743Z,53.53
2019-01-24T08:42:05.886Z,54.77
2019-01-24T08:44:36.036Z,51.97
2019-01-24T08:47:06.154Z,53.97
2019-01-24T08:49:36.199Z,55.70
2019-01-24T08:52:06.308Z,59.40
2019-01-24T08:54:36.342Z,63.30
2019-01-24T08:57:06.482Z,56.48
2019-01-24T08:59:38.171Z,46.83
2019-01-24T09:02:08.306Z,54.70
2019-01-24T09:04:38.605Z,61.93
2019-01-24T09:07:08.803Z,53.57
2019-01-24T09:09:39.011Z,61.57
2019-01-24T09:12:09.290Z,55.60
2019-01-24T09:14:39.913Z,61.23
2019-01-24T09:17:09.923Z,54.73
2019-01-24T09:19:40.263Z,51.87
2019-01-24T09:22:10.318Z,58.07
2019-01-24T09:24:40.447Z,54.30
2019-01-24T09:27:10.488Z,49.60
2019-01-24T09:29:40.582Z,51.33
2019-01-24T09:32:10.682Z,51.73
2019-01-24T09:34:40.782Z,56.47
2019-01-24T09:37:10.905Z,59.10
2019-01-24T09:39:41.168Z,58.17
2019-01-24T09:42:11.270Z,48.43
2019-01-24T09:44:41.316Z,54.03
2019-01-24T09:47:11.403Z,54.67
2019-01-24T09:49:41.446Z,54.93
2019-01-24T09:52:11.519Z,55.00
2019-01-24T09:54:43.082Z,61.17
2019-01-24T09:57:13.341Z,50.33
2019-01-24T09:59:43.436Z,56.03
2019-01-24T10:02:13.668Z,58.00
2019-01-24T10:04:43.694Z,67.33
2019-01-24T10:07:13.701Z,60.07
2019-01-24T10:09:43.922Z,66.93
2019-01-24T10:12:14.609Z,46.77
2019-01-24T10:14:44.985Z,54.33
2019-01-24T10:17:15.128Z,55.07
2019-01-24T10:19:45.249Z,51.80
2019-01-24T10:22:15.377Z,62.93
2019-01-24T10:24:45.409Z,59.40
2019-01-24T10:27:15.388Z,65.13
2019-01-24T10:29:45.508Z,54.13
2019-01-24T10:32:15.638Z,58.57
2019-01-24T10:34:48.538Z,59.17
2019-01-24T10:37:19.110Z,42.83
2019-01-24T10:39:49.161Z,55.27
2019-01-24T10:42:19.202Z,53.00
2019-01-24T10:44:49.186Z,59.20
2019-01-24T10:47:19.304Z,53.57
2019-01-24T10:49:49.370Z,54.57
2019-01-24T10:52:19.430Z,57.10
2019-01-24T10:54:49.587Z,52.30
2019-01-24T10:57:19.866Z,55.13
2019-01-24T10:59:49.933Z,64.83
2019-01-24T11:02:20.100Z,63.23
2019-01-24T11:04:51.139Z,57.27
2019-01-24T11:07:21.175Z,57.97
2019-01-24T11:09:51.322Z,56.87
2019-01-24T11:12:21.442Z,58.20
2019-01-24T11:14:51.394Z,57.60
2019-01-24T11:17:21.453Z,56.63
2019-01-24T11:19:51.436Z,64.77
2019-01-24T11:22:21.521Z,54.20
2019-01-24T11:24:51.562Z,58.60
2019-01-24T11:27:21.615Z,58.20
2019-01-24T11:29:51.612Z,58.70
2019-01-24T11:32:21.587Z,61.73
2019-01-24T11:34:51.772Z,66.53
2019-01-24T11:37:23.361Z,66.00
2019-01-24T11:39:53.587Z,57.87
2019-01-24T11:42:23.638Z,54.37
2019-01-24T11:44:53.617Z,67.40
2019-01-24T11:47:23.590Z,66.43
2019-01-24T11:49:53.622Z,60.70
2019-01-24T11:52:23.736Z,58.83
2019-01-24T11:54:55.009Z,57.57
2019-01-24T11:57:24.993Z,59.40
2019-01-24T11:59:55.186Z,56.93
2019-01-24T12:02:25.335Z,53.90
2019-01-24T12:04:55.333Z,59.40
2019-01-24T12:07:25.417Z,59.87
2019-01-24T12:09:55.478Z,63.33
2019-01-24T12:12:25.525Z,67.97
2019-01-24T12:14:56.595Z,71.00
2019-01-24T12:17:26.663Z,65.03
2019-01-24T12:19:56.754Z,57.87
2019-01-24T12:22:26.846Z,58.00
2019-01-24T12:24:56.847Z,62.30
2019-01-24T12:27:26.840Z,57.83
2019-01-24T12:29:56.977Z,62.47
2019-01-24T12:32:27.030Z,57.47
2019-01-24T12:34:57.089Z,58.37
2019-01-24T12:37:27.098Z,58.97
2019-01-24T12:39:57.142Z,60.37
2019-01-24T12:42:27.215Z,62.93
2019-01-24T12:44:57.418Z,72.13
2019-01-24T12:47:28.043Z,68.03
2019-01-24T12:49:58.194Z,62.33
2019-01-24T12:52:28.263Z,64.80
2019-01-24T12:54:58.716Z,73.90
2019-01-24T12:57:28.991Z,72.53
2019-01-24T12:59:59.934Z,67.03
2019-01-24T13:02:30.112Z,72.87
2019-01-24T13:05:00.143Z,64.37
2019-01-24T13:07:30.266Z,64.63
2019-01-24T13:10:00.370Z,61.85
2019-01-24T13:12:30.904Z,70.13
2019-01-24T13:15:01.017Z,62.63
2019-01-24T13:17:31.033Z,71.17
2019-01-24T13:20:01.111Z,62.23
2019-01-24T13:22:31.169Z,66.67
2019-01-24T13:25:01.181Z,56.80
2019-01-24T13:27:31.318Z,69.00
2019-01-24T13:30:01.382Z,68.63
2019-01-24T13:32:31.370Z,62.40
2019-01-24T13:35:01.546Z,63.13
2019-01-24T13:37:31.690Z,61.87
2019-01-24T13:40:01.794Z,82.43
2019-01-24T13:42:31.965Z,62.40
2019-01-24T13:45:02.189Z,63.60
2019-01-24T13:47:32.297Z,70.73
2019-01-24T13:50:02.737Z,67.43
2019-01-24T13:52:33.076Z,66.90
2019-01-24T13:55:03.388Z,56.70
2019-01-24T13:57:33.566Z,64.40
2019-01-24T14:00:06.376Z,66.93
2019-01-24T14:02:36.754Z,77.97
2019-01-24T14:05:07.805Z,63.27
2019-01-24T14:07:39.105Z,68.20
2019-01-24T14:10:10.924Z,59.43
2019-01-24T14:12:41.290Z,63.83
2019-01-24T14:15:15.241Z,63.93
2019-01-24T14:17:46.104Z,58.03
2019-01-24T14:20:17.057Z,65.33
2019-01-24T14:22:47.218Z,63.83
2019-01-24T14:25:26.288Z,62.97
2019-01-24T14:27:59.672Z,69.10
2019-01-24T14:30:41.031Z,66.30
2019-01-24T14:33:12.095Z,64.43
2019-01-24T14:35:42.400Z,60.97
2019-01-24T14:38:12.593Z,57.20
2019-01-24T14:40:43.268Z,65.63
2019-01-24T14:43:13.778Z,67.63
2019-01-24T14:45:44.179Z,64.40
2019-01-24T14:48:14.992Z,67.43
2019-01-24T14:50:45.678Z,62.73
2019-01-24T14:53:15.897Z,61.37
2019-01-24T14:55:45.930Z,70.80
2019-01-24T14:58:15.997Z,69.07
2019-01-24T15:00:48.597Z,65.17
2019-01-24T15:03:18.785Z,64.10
2019-01-24T15:05:51.568Z,59.30
2019-01-24T15:08:22.380Z,66.27
2019-01-24T15:10:52.804Z,59.53
2019-01-24T15:13:24.695Z,64.97
2019-01-24T15:15:57.779Z,74.20
2019-01-24T15:18:27.826Z,60.03
2019-01-24T15:20:57.934Z,58.20
2019-01-24T15:23:29.215Z,62.60
2019-01-24T15:25:59.297Z,60.67
2019-01-24T15:28:29.330Z,60.23
2019-01-24T15:30:59.433Z,60.73
2019-01-24T15:33:31.074Z,64.67
2019-01-24T15:36:01.289Z,59.23
2019-01-24T15:38:32.304Z,63.77
2019-01-24T15:41:02.411Z,64.73
2019-01-24T15:46:37.948Z,72.00
2019-01-24T15:49:12.994Z,72.70
2019-01-24T15:51:43.053Z,62.43
2019-01-24T15:54:13.384Z,63.07
2019-01-24T15:56:43.496Z,58.83
2019-01-24T15:59:14.125Z,69.20
2019-01-24T16:01:48.105Z,68.20
2019-01-24T16:04:19.928Z,71.77
2019-01-24T16:06:50.186Z,61.20
2019-01-24T16:09:20.261Z,56.57
2019-01-24T16:11:52.227Z,69.10
2019-01-24T16:14:23.306Z,68.80
2019-01-24T16:16:55.414Z,74.70
2019-01-24T16:19:28.211Z,66.37
2019-01-24T16:21:58.359Z,56.70
2019-01-24T16:24:28.501Z,67.80
2019-01-24T16:26:59.048Z,74.30
2019-01-24T16:29:31.070Z,61.10
2019-01-24T16:32:02.842Z,63.93
2019-01-24T16:34:33.345Z,58.43
2019-01-24T16:37:05.111Z,63.17
2019-01-24T16:39:38.343Z,73.43
2019-01-24T16:42:08.432Z,65.80
2019-01-24T16:44:38.563Z,67.50
2019-01-24T16:47:08.639Z,67.50
2019-01-24T16:49:38.759Z,61.60
2019-01-24T16:52:08.984Z,59.40
2019-01-24T16:54:39.089Z,63.83
2019-01-24T16:57:09.292Z,66.03
2019-01-24T16:59:39.356Z,54.67
2019-01-24T17:02:09.563Z,65.27
2019-01-24T17:04:41.156Z,57.10
2019-01-24T17:07:11.248Z,62.33
2019-01-24T17:09:41.460Z,64.32
2019-01-24T17:12:11.566Z,61.37
2019-01-24T17:14:41.850Z,57.17
2019-01-24T17:17:12.204Z,55.27
2019-01-24T17:19:42.414Z,53.38
2019-01-24T17:22:12.539Z,73.37
2019-01-24T17:24:42.756Z,63.13
2019-01-24T17:27:13.058Z,65.50
2019-01-24T17:29:43.138Z,58.40
2019-01-24T17:32:13.511Z,60.53
2019-01-24T17:34:45.034Z,54.63
2019-01-24T17:37:15.140Z,63.33
2019-01-24T17:39:45.760Z,67.67
2019-01-24T17:42:16.729Z,59.50
2019-01-24T17:44:46.847Z,62.70
2019-01-24T17:47:16.896Z,66.33
2019-01-24T17:49:47.018Z,58.57
2019-01-24T17:52:17.377Z,68.90
2019-01-24T17:54:47.454Z,61.03
2019-01-24T17:57:17.555Z,58.03
2019-01-24T17:59:47.521Z,75.27
2019-01-24T18:02:17.645Z,61.23
2019-01-24T18:04:49.950Z,63.10
2019-01-24T18:07:20.042Z,66.07
2019-01-24T18:09:51.588Z,57.87
2019-01-24T18:12:21.937Z,72.70
2019-01-24T18:14:52.115Z,56.13
2019-01-24T18:17:23.928Z,63.97
2019-01-24T18:19:54.094Z,66.67
2019-01-24T18:22:24.417Z,76.47
2019-01-24T18:24:58.974Z,62.33
2019-01-24T18:27:29.108Z,62.77
2019-01-24T18:29:59.354Z,59.13
2019-01-24T18:32:29.532Z,62.20
2019-01-24T18:34:59.698Z,61.97
2019-01-24T18:37:29.916Z,69.33
2019-01-24T18:40:01.764Z,69.13
2019-01-24T18:42:32.016Z,62.27
2019-01-24T18:45:02.177Z,57.87
2019-01-24T18:47:32.925Z,64.23
2019-01-24T18:50:11.416Z,71.27
2019-01-24T18:52:42.015Z,63.07
2019-01-24T18:55:12.245Z,61.87
2019-01-24T18:57:42.551Z,61.00
2019-01-24T19:00:17.454Z,53.90
2019-01-24T19:02:47.678Z,67.20
2019-01-24T19:05:18.781Z,56.47
2019-01-24T19:07:50.907Z,62.23
2019-01-24T19:10:23.227Z,58.63
2019-01-24T19:12:53.442Z,66.13
2019-01-24T19:15:23.922Z,60.20
2019-01-24T19:17:54.077Z,83.20
2019-01-24T19:20:26.294Z,75.30
2019-01-24T19:22:56.403Z,82.13
2019-01-24T19:25:26.486Z,65.53
2019-01-24T19:27:57.602Z,87.77
2019-01-24T19:30:28.585Z,70.73
2019-01-24T19:32:58.729Z,73.70
2019-01-24T19:35:28.863Z,67.33
2019-01-24T19:37:58.986Z,61.50
2019-01-24T19:40:29.529Z,68.37
2019-01-24T19:42:59.647Z,72.70
2019-01-24T19:45:30.769Z,67.73
2019-01-24T19:48:01.176Z,77.57
2019-01-24T19:50:33.428Z,63.80
2019-01-24T19:53:07.206Z,62.70
2019-01-24T19:55:38.617Z,76.33
2019-01-24T19:58:09.105Z,68.83
2019-01-24T20:00:39.519Z,68.43
2019-01-24T20:03:09.702Z,62.77
2019-01-24T20:05:40.036Z,66.93
2019-01-24T20:08:10.237Z,65.50
2019-01-24T20:10:41.213Z,64.47
2019-01-24T20:13:11.547Z,75.45
2019-01-24T20:15:41.569Z,77.50
2019-01-24T20:18:11.975Z,64.75
2019-01-24T20:20:42.215Z,79.97
2019-01-24T20:23:12.586Z,65.65
2019-01-24T20:25:42.826Z,68.23
2019-01-24T20:28:13.202Z,65.67
2019-01-24T20:30:43.604Z,73.80
2019-01-24T20:33:14.016Z,79.17
2019-01-24T20:35:48.733Z,64.23
2019-01-24T20:38:18.957Z,64.27
2019-01-24T20:40:49.254Z,78.87
2019-01-24T20:43:19.547Z,76.83
2019-01-24T20:45:49.908Z,73.13
2019-01-24T20:48:20.639Z,65.50
2019-01-24T20:50:50.986Z,79.13
2019-01-24T20:53:21.308Z,69.40
2019-01-24T20:55:52.621Z,66.83
2019-01-24T20:58:23.063Z,67.57
2019-01-24T21:00:53.835Z,71.37
2019-01-24T21:03:24.353Z,63.40
2019-01-24T21:05:54.606Z,76.53
2019-01-24T21:08:24.835Z,53.03
2019-01-24T21:10:55.104Z,71.03
2019-01-24T21:13:25.333Z,61.60
2019-01-24T21:15:55.461Z,58.43
2019-01-24T21:18:25.619Z,63.57
2019-01-24T21:20:55.759Z,76.33
2019-01-24T21:23:25.941Z,83.17
2019-01-24T21:25:56.093Z,72.93
2019-01-24T21:28:26.364Z,74.87
2019-01-24T21:30:56.491Z,83.53
2019-01-24T21:33:26.934Z,59.83
2019-01-24T21:35:57.287Z,68.67
2019-01-24T21:38:27.506Z,76.70
2019-01-24T21:40:57.733Z,67.17
2019-01-24T21:43:27.879Z,79.63
2019-01-24T21:45:58.147Z,83.33
2019-01-24T21:48:28.311Z,66.07
2019-01-24T21:50:58.621Z,70.07
2019-01-24T21:53:28.860Z,79.67
2019-01-24T21:55:59.117Z,67.10
2019-01-24T21:58:29.260Z,67.67
2019-01-24T22:00:59.513Z,58.43
2019-01-24T22:03:29.692Z,69.57
2019-01-24T22:05:59.840Z,73.23
2019-01-24T22:08:30.029Z,61.73
2019-01-24T22:11:00.183Z,68.90
2019-01-24T22:13:30.519Z,74.93
2019-01-24T22:16:00.780Z,63.90
2019-01-24T22:18:30.968Z,66.70
2019-01-24T22:21:01.102Z,63.77
2019-01-24T22:23:31.418Z,71.77
2019-01-24T22:26:01.644Z,72.53
2019-01-24T22:28:31.953Z,72.70
2019-01-24T22:31:02.405Z,70.77
2019-01-24T22:33:32.656Z,67.07
2019-01-24T22:36:02.940Z,71.77
2019-01-24T22:38:33.275Z,75.97
2019-01-24T22:41:04.495Z,66.97
2019-01-24T22:43:34.790Z,70.87
2019-01-24T22:46:05.255Z,69.97
2019-01-24T22:48:35.719Z,65.77
2019-01-24T22:51:05.965Z,67.97
2019-01-24T22:53:36.155Z,63.97
2019-01-24T22:56:06.277Z,68.30
2019-01-24T22:58:37.470Z,61.33
2019-01-24T23:01:33.075Z,60.13
2019-01-24T23:04:10.811Z,60.83
2019-01-24T23:06:40.867Z,60.20
2019-01-24T23:09:12.704Z,78.50
2019-01-24T23:11:43.030Z,64.07
2019-01-24T23:14:13.247Z,63.37
2019-01-24T23:16:43.371Z,65.83
2019-01-24T23:19:13.570Z,71.27
2019-01-24T23:21:43.854Z,71.97
2019-01-24T23:24:14.202Z,69.53
2019-01-24T23:26:44.539Z,80.22
2019-01-24T23:29:14.787Z,59.57
2019-01-24T23:31:45.001Z,75.93
2019-01-24T23:34:15.086Z,63.97
2019-01-24T23:36:45.361Z,76.47
2019-01-24T23:39:15.560Z,63.30
2019-01-24T23:41:45.772Z,58.87
2019-01-24T23:44:15.982Z,66.30
2019-01-24T23:46:46.301Z,64.37
2019-01-24T23:49:16.627Z,67.53
2019-01-24T23:51:46.762Z,64.07
2019-01-24T23:54:16.992Z,66.77
2019-01-24T23:56:47.197Z,80.40
2019-01-24T23:59:17.328Z,69.23
